Terminal Aerodrome Forecast
Issued by NWS

Home | Current Version | Previous Version | Graphics & Text | Print | Product List | Glossary On
Versions: 1 2 3 4 5 6 7 8 9 10 11 12 13 14 15 16 17 18 19
000
FTUS43 KMPX 250112 AAA
TAFAXN
TAF AMD
KAXN 250112Z 2501/2524 15016G21KT 4SM BR OVC009
     FM250600 16012KT 5SM BR OVC007
     FM250900 23013G20KT 5SM BR OVC009
     FM251200 29018G28KT P6SM SCT015 BKN025
     FM251800 31022G32KT P6SM BKN050=

USA.gov is the U.S. government's official web portal to all federal, state and local government web resources and services.